sensor_id;sensor_type;location;lat;lon;timestamp;P1;durP1;ratioP1;P2;durP2;ratioP2
4096;SDS011;2062;50.694;7.246;2023-04-25T00:00:38;9.50;;;2.88;;
4096;SDS011;2062;50.694;7.246;2023-04-25T00:03:05;9.75;;;2.30;;
4096;SDS011;2062;50.694;7.246;2023-04-25T00:05:34;11.80;;;3.20;;
4096;SDS011;2062;50.694;7.246;2023-04-25T00:08:02;9.18;;;2.58;;
4096;SDS011;2062;50.694;7.246;2023-04-25T00:10:30;9.93;;;2.30;;
4096;SDS011;2062;50.694;7.246;2023-04-25T00:12:57;10.65;;;2.60;;
4096;SDS011;2062;50.694;7.246;2023-04-25T00:15:27;9.77;;;2.88;;
4096;SDS011;2062;50.694;7.246;2023-04-25T00:17:55;8.90;;;2.53;;
4096;SDS011;2062;50.694;7.246;2023-04-25T00:20:22;12.73;;;2.97;;
4096;SDS011;2062;50.694;7.246;2023-04-25T00:22:50;8.80;;;2.63;;
4096;SDS011;2062;50.694;7.246;2023-04-25T00:25:18;13.63;;;3.08;;
4096;SDS011;2062;50.694;7.246;2023-04-25T00:27:46;9.88;;;2.90;;
4096;SDS011;2062;50.694;7.246;2023-04-25T00:30:13;14.73;;;2.93;;
4096;SDS011;2062;50.694;7.246;2023-04-25T00:32:40;9.52;;;2.88;;
4096;SDS011;2062;50.694;7.246;2023-04-25T00:35:08;8.25;;;2.53;;
4096;SDS011;2062;50.694;7.246;2023-04-25T00:37:35;8.45;;;2.33;;
4096;SDS011;2062;50.694;7.246;2023-04-25T00:40:03;10.52;;;2.50;;
4096;SDS011;2062;50.694;7.246;2023-04-25T00:42:32;7.23;;;2.43;;
4096;SDS011;2062;50.694;7.246;2023-04-25T00:45:02;11.02;;;2.97;;
4096;SDS011;2062;50.694;7.246;2023-04-25T00:47:31;14.13;;;2.97;;
4096;SDS011;2062;50.694;7.246;2023-04-25T00:49:59;8.13;;;2.30;;
4096;SDS011;2062;50.694;7.246;2023-04-25T00:52:25;9.55;;;2.92;;
4096;SDS011;2062;50.694;7.246;2023-04-25T00:54:53;11.63;;;2.93;;
4096;SDS011;2062;50.694;7.246;2023-04-25T00:57:20;10.52;;;2.78;;
4096;SDS011;2062;50.694;7.246;2023-04-25T00:59:46;7.95;;;2.53;;
4096;SDS011;2062;50.694;7.246;2023-04-25T01:02:18;9.43;;;2.80;;
4096;SDS011;2062;50.694;7.246;2023-04-25T02:02:11;10.20;;;3.00;;
4096;SDS011;2062;50.694;7.246;2023-04-25T02:04:38;8.07;;;2.60;;
4096;SDS011;2062;50.694;7.246;2023-04-25T02:07:04;11.43;;;2.95;;
4096;SDS011;2062;50.694;7.246;2023-04-25T02:09:31;10.55;;;2.83;;
4096;SDS011;2062;50.694;7.246;2023-04-25T02:11:58;9.40;;;2.90;;
4096;SDS011;2062;50.694;7.246;2023-04-25T02:14:25;12.52;;;2.85;;
4096;SDS011;2062;50.694;7.246;2023-04-25T02:16:52;15.68;;;3.20;;
4096;SDS011;2062;50.694;7.246;2023-04-25T02:19:20;13.07;;;3.22;;
4096;SDS011;2062;50.694;7.246;2023-04-25T02:21:47;11.52;;;3.47;;
4096;SDS011;2062;50.694;7.246;2023-04-25T02:24:13;11.33;;;3.20;;
4096;SDS011;2062;50.694;7.246;2023-04-25T02:26:40;11.32;;;2.97;;
4096;SDS011;2062;50.694;7.246;2023-04-25T02:29:07;11.60;;;3.10;;
4096;SDS011;2062;50.694;7.246;2023-04-25T02:31:34;9.48;;;2.80;;
4096;SDS011;2062;50.694;7.246;2023-04-25T02:34:01;10.25;;;3.20;;
4096;SDS011;2062;50.694;7.246;2023-04-25T02:36:29;9.17;;;2.73;;
4096;SDS011;2062;50.694;7.246;2023-04-25T02:38:59;11.80;;;2.88;;
4096;SDS011;2062;50.694;7.246;2023-04-25T02:41:26;12.65;;;2.92;;
4096;SDS011;2062;50.694;7.246;2023-04-25T02:43:52;11.82;;;2.65;;
4096;SDS011;2062;50.694;7.246;2023-04-25T02:46:19;8.38;;;2.42;;
4096;SDS011;2062;50.694;7.246;2023-04-25T02:48:46;8.87;;;3.17;;
4096;SDS011;2062;50.694;7.246;2023-04-25T02:51:13;13.38;;;3.15;;
4096;SDS011;2062;50.694;7.246;2023-04-25T02:53:42;12.52;;;2.90;;
4096;SDS011;2062;50.694;7.246;2023-04-25T02:56:09;11.80;;;3.30;;
4096;SDS011;2062;50.694;7.246;2023-04-25T02:58:36;12.43;;;3.70;;
4096;SDS011;2062;50.694;7.246;2023-04-25T03:01:03;12.87;;;3.43;;
4096;SDS011;2062;50.694;7.246;2023-04-25T03:03:30;12.23;;;3.15;;
4096;SDS011;2062;50.694;7.246;2023-04-25T03:05:56;12.88;;;3.58;;
4096;SDS011;2062;50.694;7.246;2023-04-25T03:08:23;11.57;;;3.55;;
4096;SDS011;2062;50.694;7.246;2023-04-25T03:10:53;10.60;;;2.97;;
4096;SDS011;2062;50.694;7.246;2023-04-25T03:13:20;13.83;;;3.20;;
4096;SDS011;2062;50.694;7.246;2023-04-25T03:15:47;11.98;;;3.30;;
4096;SDS011;2062;50.694;7.246;2023-04-25T03:18:14;9.85;;;3.15;;
4096;SDS011;2062;50.694;7.246;2023-04-25T03:20:41;10.77;;;3.08;;
4096;SDS011;2062;50.694;7.246;2023-04-25T03:23:08;12.73;;;3.30;;
4096;SDS011;2062;50.694;7.246;2023-04-25T03:25:34;13.20;;;3.43;;
4096;SDS011;2062;50.694;7.246;2023-04-25T03:28:03;12.65;;;3.42;;
4096;SDS011;2062;50.694;7.246;2023-04-25T03:30:30;13.43;;;3.10;;
4096;SDS011;2062;50.694;7.246;2023-04-25T03:32:56;11.23;;;3.45;;
4096;SDS011;2062;50.694;7.246;2023-04-25T03:35:23;13.68;;;3.30;;
4096;SDS011;2062;50.694;7.246;2023-04-25T03:37:50;11.03;;;2.87;;
4096;SDS011;2062;50.694;7.246;2023-04-25T03:40:17;10.38;;;3.28;;
4096;SDS011;2062;50.694;7.246;2023-04-25T03:42:44;8.05;;;3.10;;
4096;SDS011;2062;50.694;7.246;2023-04-25T03:45:12;10.63;;;3.25;;
4096;SDS011;2062;50.694;7.246;2023-04-25T03:47:39;8.75;;;2.78;;
4096;SDS011;2062;50.694;7.246;2023-04-25T03:50:06;10.37;;;3.30;;
4096;SDS011;2062;50.694;7.246;2023-04-25T03:52:33;11.70;;;3.20;;
4096;SDS011;2062;50.694;7.246;2023-04-25T03:55:00;12.57;;;3.13;;
4096;SDS011;2062;50.694;7.246;2023-04-25T03:57:27;10.48;;;3.28;;
4096;SDS011;2062;50.694;7.246;2023-04-25T03:59:53;9.10;;;2.60;;
4096;SDS011;2062;50.694;7.246;2023-04-25T04:02:21;9.17;;;3.27;;
4096;SDS011;2062;50.694;7.246;2023-04-25T04:04:48;12.35;;;3.47;;
4096;SDS011;2062;50.694;7.246;2023-04-25T04:07:15;11.18;;;3.28;;
4096;SDS011;2062;50.694;7.246;2023-04-25T04:09:42;16.33;;;4.13;;
4096;SDS011;2062;50.694;7.246;2023-04-25T04:12:09;10.55;;;3.88;;
4096;SDS011;2062;50.694;7.246;2023-04-25T04:14:35;9.23;;;3.00;;
4096;SDS011;2062;50.694;7.246;2023-04-25T04:17:02;15.50;;;3.55;;
4096;SDS011;2062;50.694;7.246;2023-04-25T04:19:30;9.90;;;3.03;;
4096;SDS011;2062;50.694;7.246;2023-04-25T04:21:57;10.80;;;3.38;;
4096;SDS011;2062;50.694;7.246;2023-04-25T04:24:24;9.35;;;3.33;;
4096;SDS011;2062;50.694;7.246;2023-04-25T04:26:51;13.47;;;3.40;;
4096;SDS011;2062;50.694;7.246;2023-04-25T04:29:18;16.55;;;3.47;;
4096;SDS011;2062;50.694;7.246;2023-04-25T04:31:47;10.85;;;3.17;;
4096;SDS011;2062;50.694;7.246;2023-04-25T04:34:14;11.45;;;3.30;;
4096;SDS011;2062;50.694;7.246;2023-04-25T04:36:44;14.50;;;3.70;;
4096;SDS011;2062;50.694;7.246;2023-04-25T04:39:11;11.93;;;3.23;;
4096;SDS011;2062;50.694;7.246;2023-04-25T04:41:38;10.98;;;3.40;;
4096;SDS011;2062;50.694;7.246;2023-04-25T04:44:05;10.90;;;3.30;;
4096;SDS011;2062;50.694;7.246;2023-04-25T04:46:34;16.13;;;3.67;;
4096;SDS011;2062;50.694;7.246;2023-04-25T04:49:03;15.98;;;3.35;;
4096;SDS011;2062;50.694;7.246;2023-04-25T04:51:30;16.20;;;3.83;;
4096;SDS011;2062;50.694;7.246;2023-04-25T04:53:58;13.20;;;3.58;;
4096;SDS011;2062;50.694;7.246;2023-04-25T04:56:27;14.48;;;3.63;;
4096;SDS011;2062;50.694;7.246;2023-04-25T04:58:54;10.88;;;3.38;;
4096;SDS011;2062;50.694;7.246;2023-04-25T05:01:21;14.27;;;3.90;;
4096;SDS011;2062;50.694;7.246;2023-04-25T05:03:48;11.83;;;3.70;;
4096;SDS011;2062;50.694;7.246;2023-04-25T05:06:15;12.20;;;4.50;;
4096;SDS011;2062;50.694;7.246;2023-04-25T05:08:42;15.30;;;4.32;;
4096;SDS011;2062;50.694;7.246;2023-04-25T05:11:10;19.27;;;4.75;;
4096;SDS011;2062;50.694;7.246;2023-04-25T05:13:37;18.98;;;4.93;;
4096;SDS011;2062;50.694;7.246;2023-04-25T05:16:04;14.23;;;4.20;;
4096;SDS011;2062;50.694;7.246;2023-04-25T05:18:31;15.93;;;4.20;;
4096;SDS011;2062;50.694;7.246;2023-04-25T05:20:58;18.50;;;4.53;;
4096;SDS011;2062;50.694;7.246;2023-04-25T05:23:24;18.80;;;4.88;;
4096;SDS011;2062;50.694;7.246;2023-04-25T05:25:52;15.02;;;4.35;;
4096;SDS011;2062;50.694;7.246;2023-04-25T05:28:21;16.53;;;5.33;;
4096;SDS011;2062;50.694;7.246;2023-04-25T05:30:48;16.92;;;4.80;;
4096;SDS011;2062;50.694;7.246;2023-04-25T05:33:15;16.40;;;5.60;;
4096;SDS011;2062;50.694;7.246;2023-04-25T05:35:42;20.45;;;6.35;;
4096;SDS011;2062;50.694;7.246;2023-04-25T05:38:08;22.98;;;6.18;;
4096;SDS011;2062;50.694;7.246;2023-04-25T05:40:35;22.60;;;5.43;;
4096;SDS011;2062;50.694;7.246;2023-04-25T05:43:02;18.05;;;4.82;;
4096;SDS011;2062;50.694;7.246;2023-04-25T05:45:30;16.60;;;4.80;;
4096;SDS011;2062;50.694;7.246;2023-04-25T05:47:57;14.00;;;4.45;;
4096;SDS011;2062;50.694;7.246;2023-04-25T05:50:24;14.27;;;4.43;;
4096;SDS011;2062;50.694;7.246;2023-04-25T05:52:51;14.43;;;4.17;;
4096;SDS011;2062;50.694;7.246;2023-04-25T05:55:18;18.08;;;4.60;;
4096;SDS011;2062;50.694;7.246;2023-04-25T05:57:45;17.63;;;4.75;;
4096;SDS011;2062;50.694;7.246;2023-04-25T06:00:12;13.05;;;4.55;;
4096;SDS011;2062;50.694;7.246;2023-04-25T06:02:42;18.00;;;4.50;;
4096;SDS011;2062;50.694;7.246;2023-04-25T06:05:09;14.50;;;4.07;;
4096;SDS011;2062;50.694;7.246;2023-04-25T06:07:36;13.40;;;4.45;;
4096;SDS011;2062;50.694;7.246;2023-04-25T06:10:03;17.17;;;4.43;;
4096;SDS011;2062;50.694;7.246;2023-04-25T06:12:31;16.23;;;4.30;;
4096;SDS011;2062;50.694;7.246;2023-04-25T06:14:58;14.75;;;4.72;;
4096;SDS011;2062;50.694;7.246;2023-04-25T06:17:25;22.03;;;5.30;;
4096;SDS011;2062;50.694;7.246;2023-04-25T06:19:53;16.10;;;4.45;;
4096;SDS011;2062;50.694;7.246;2023-04-25T06:22:20;16.80;;;4.68;;
4096;SDS011;2062;50.694;7.246;2023-04-25T06:24:47;15.00;;;4.72;;
4096;SDS011;2062;50.694;7.246;2023-04-25T06:27:13;15.13;;;4.40;;
4096;SDS011;2062;50.694;7.246;2023-04-25T06:29:40;18.50;;;4.70;;
4096;SDS011;2062;50.694;7.246;2023-04-25T06:32:07;12.00;;;4.82;;
4096;SDS011;2062;50.694;7.246;2023-04-25T06:34:34;15.25;;;4.60;;
4096;SDS011;2062;50.694;7.246;2023-04-25T06:37:02;19.00;;;4.95;;
4096;SDS011;2062;50.694;7.246;2023-04-25T06:39:29;16.50;;;4.80;;
4096;SDS011;2062;50.694;7.246;2023-04-25T06:41:56;19.13;;;5.10;;
4096;SDS011;2062;50.694;7.246;2023-04-25T06:44:23;17.25;;;4.53;;
4096;SDS011;2062;50.694;7.246;2023-04-25T06:46:51;13.95;;;4.32;;
4096;SDS011;2062;50.694;7.246;2023-04-25T06:49:18;17.80;;;4.55;;
4096;SDS011;2062;50.694;7.246;2023-04-25T06:51:44;15.00;;;4.57;;
4096;SDS011;2062;50.694;7.246;2023-04-25T06:54:12;15.70;;;5.00;;
4096;SDS011;2062;50.694;7.246;2023-04-25T06:56:39;22.17;;;4.65;;
4096;SDS011;2062;50.694;7.246;2023-04-25T06:59:06;13.63;;;3.90;;
4096;SDS011;2062;50.694;7.246;2023-04-25T07:01:34;13.05;;;4.28;;
4096;SDS011;2062;50.694;7.246;2023-04-25T07:04:01;18.42;;;4.30;;
4096;SDS011;2062;50.694;7.246;2023-04-25T07:06:28;14.43;;;3.80;;
4096;SDS011;2062;50.694;7.246;2023-04-25T07:08:54;13.68;;;3.85;;
4096;SDS011;2062;50.694;7.246;2023-04-25T07:11:22;15.90;;;3.70;;
4096;SDS011;2062;50.694;7.246;2023-04-25T07:13:50;13.60;;;3.47;;
4096;SDS011;2062;50.694;7.246;2023-04-25T07:16:16;16.92;;;3.85;;
4096;SDS011;2062;50.694;7.246;2023-04-25T07:18:43;14.43;;;3.33;;
4096;SDS011;2062;50.694;7.246;2023-04-25T07:21:10;16.40;;;3.55;;
4096;SDS011;2062;50.694;7.246;2023-04-25T07:23:37;13.77;;;3.55;;
4096;SDS011;2062;50.694;7.246;2023-04-25T07:26:05;12.07;;;3.38;;
4096;SDS011;2062;50.694;7.246;2023-04-25T07:28:34;12.85;;;3.30;;
4096;SDS011;2062;50.694;7.246;2023-04-25T07:31:00;17.73;;;3.47;;
4096;SDS011;2062;50.694;7.246;2023-04-25T07:33:28;11.95;;;3.00;;
4096;SDS011;2062;50.694;7.246;2023-04-25T07:35:55;10.35;;;3.72;;
4096;SDS011;2062;50.694;7.246;2023-04-25T07:38:23;14.80;;;3.40;;
4096;SDS011;2062;50.694;7.246;2023-04-25T07:40:50;10.88;;;3.38;;
4096;SDS011;2062;50.694;7.246;2023-04-25T07:43:16;14.20;;;3.80;;
4096;SDS011;2062;50.694;7.246;2023-04-25T07:45:45;16.80;;;2.72;;
4096;SDS011;2062;50.694;7.246;2023-04-25T07:48:15;9.80;;;3.33;;
4096;SDS011;2062;50.694;7.246;2023-04-25T07:50:43;11.93;;;3.30;;
4096;SDS011;2062;50.694;7.246;2023-04-25T07:53:10;10.73;;;2.80;;
4096;SDS011;2062;50.694;7.246;2023-04-25T07:55:37;11.57;;;2.57;;
4096;SDS011;2062;50.694;7.246;2023-04-25T07:58:05;9.60;;;2.30;;
4096;SDS011;2062;50.694;7.246;2023-04-25T08:00:31;11.35;;;2.90;;
4096;SDS011;2062;50.694;7.246;2023-04-25T08:03:00;7.47;;;2.55;;
4096;SDS011;2062;50.694;7.246;2023-04-25T08:05:27;9.02;;;2.55;;
4096;SDS011;2062;50.694;7.246;2023-04-25T08:07:54;12.10;;;3.00;;
4096;SDS011;2062;50.694;7.246;2023-04-25T08:10:21;10.07;;;2.97;;
4096;SDS011;2062;50.694;7.246;2023-04-25T08:12:49;12.38;;;2.83;;
4096;SDS011;2062;50.694;7.246;2023-04-25T08:15:15;9.98;;;2.55;;
4096;SDS011;2062;50.694;7.246;2023-04-25T08:17:42;13.80;;;3.10;;
4096;SDS011;2062;50.694;7.246;2023-04-25T08:20:12;8.83;;;2.40;;
4096;SDS011;2062;50.694;7.246;2023-04-25T08:22:38;10.23;;;2.50;;
4096;SDS011;2062;50.694;7.246;2023-04-25T08:25:05;11.93;;;2.55;;
4096;SDS011;2062;50.694;7.246;2023-04-25T08:27:32;9.77;;;2.50;;
4096;SDS011;2062;50.694;7.246;2023-04-25T08:30:00;9.27;;;2.50;;
4096;SDS011;2062;50.694;7.246;2023-04-25T08:32:28;6.93;;;2.33;;
4096;SDS011;2062;50.694;7.246;2023-04-25T08:34:54;10.95;;;2.47;;
4096;SDS011;2062;50.694;7.246;2023-04-25T08:37:22;12.13;;;2.50;;
4096;SDS011;2062;50.694;7.246;2023-04-25T08:39:49;10.70;;;2.40;;
4096;SDS011;2062;50.694;7.246;2023-04-25T08:42:17;10.10;;;2.38;;
4096;SDS011;2062;50.694;7.246;2023-04-25T08:44:45;11.43;;;3.00;;
4096;SDS011;2062;50.694;7.246;2023-04-25T08:47:14;8.38;;;2.40;;
4096;SDS011;2062;50.694;7.246;2023-04-25T08:49:41;7.43;;;2.85;;
4096;SDS011;2062;50.694;7.246;2023-04-25T08:52:12;12.00;;;2.33;;
4096;SDS011;2062;50.694;7.246;2023-04-25T08:54:42;8.05;;;2.00;;
4096;SDS011;2062;50.694;7.246;2023-04-25T08:57:11;12.10;;;2.33;;
4096;SDS011;2062;50.694;7.246;2023-04-25T08:59:39;7.95;;;1.90;;
4096;SDS011;2062;50.694;7.246;2023-04-25T09:02:10;10.50;;;2.30;;
4096;SDS011;2062;50.694;7.246;2023-04-25T09:04:39;9.52;;;1.90;;
4096;SDS011;2062;50.694;7.246;2023-04-25T09:07:07;12.93;;;2.28;;
4096;SDS011;2062;50.694;7.246;2023-04-25T09:09:33;10.57;;;2.23;;
4096;SDS011;2062;50.694;7.246;2023-04-25T09:12:02;7.88;;;2.08;;
4096;SDS011;2062;50.694;7.246;2023-04-25T09:14:29;8.60;;;1.60;;
4096;SDS011;2062;50.694;7.246;2023-04-25T09:17:00;9.82;;;1.55;;
4096;SDS011;2062;50.694;7.246;2023-04-25T09:19:29;7.45;;;1.80;;
4096;SDS011;2062;50.694;7.246;2023-04-25T09:21:57;7.83;;;1.70;;
4096;SDS011;2062;50.694;7.246;2023-04-25T09:24:31;7.22;;;1.95;;
4096;SDS011;2062;50.694;7.246;2023-04-25T09:26:59;8.93;;;1.65;;
4096;SDS011;2062;50.694;7.246;2023-04-25T09:29:29;8.55;;;1.60;;
4096;SDS011;2062;50.694;7.246;2023-04-25T09:34:40;8.87;;;1.90;;
4096;SDS011;2062;50.694;7.246;2023-04-25T09:37:08;6.82;;;1.73;;
4096;SDS011;2062;50.694;7.246;2023-04-25T09:39:35;7.85;;;1.75;;
4096;SDS011;2062;50.694;7.246;2023-04-25T09:42:04;7.53;;;1.60;;
4096;SDS011;2062;50.694;7.246;2023-04-25T09:44:31;6.43;;;1.90;;
4096;SDS011;2062;50.694;7.246;2023-04-25T09:46:58;8.70;;;1.87;;
4096;SDS011;2062;50.694;7.246;2023-04-25T09:49:25;7.30;;;2.00;;
4096;SDS011;2062;50.694;7.246;2023-04-25T09:51:54;7.03;;;2.05;;
4096;SDS011;2062;50.694;7.246;2023-04-25T09:54:22;5.82;;;1.60;;
4096;SDS011;2062;50.694;7.246;2023-04-25T09:56:49;8.40;;;1.95;;
4096;SDS011;2062;50.694;7.246;2023-04-25T09:59:20;8.67;;;2.00;;
4096;SDS011;2062;50.694;7.246;2023-04-25T10:01:48;8.07;;;1.90;;
4096;SDS011;2062;50.694;7.246;2023-04-25T10:04:19;7.22;;;1.70;;
4096;SDS011;2062;50.694;7.246;2023-04-25T10:06:49;8.88;;;1.90;;
4096;SDS011;2062;50.694;7.246;2023-04-25T10:09:18;9.00;;;1.50;;
4096;SDS011;2062;50.694;7.246;2023-04-25T10:11:47;9.50;;;1.80;;
4096;SDS011;2062;50.694;7.246;2023-04-25T10:14:14;8.18;;;2.00;;
4096;SDS011;2062;50.694;7.246;2023-04-25T10:16:43;5.85;;;1.60;;
4096;SDS011;2062;50.694;7.246;2023-04-25T10:19:10;7.70;;;1.70;;
4096;SDS011;2062;50.694;7.246;2023-04-25T10:21:39;7.45;;;1.77;;
4096;SDS011;2062;50.694;7.246;2023-04-25T10:24:12;5.67;;;1.60;;
4096;SDS011;2062;50.694;7.246;2023-04-25T10:26:39;9.98;;;2.05;;
4096;SDS011;2062;50.694;7.246;2023-04-25T10:29:06;9.48;;;2.20;;
4096;SDS011;2062;50.694;7.246;2023-04-25T10:31:33;6.47;;;2.17;;
4096;SDS011;2062;50.694;7.246;2023-04-25T10:34:12;11.07;;;2.72;;
4096;SDS011;2062;50.694;7.246;2023-04-25T10:36:39;12.83;;;2.80;;
4096;SDS011;2062;50.694;7.246;2023-04-25T10:39:06;7.55;;;2.20;;
4096;SDS011;2062;50.694;7.246;2023-04-25T10:41:45;7.43;;;2.13;;
4096;SDS011;2062;50.694;7.246;2023-04-25T10:44:12;7.65;;;2.00;;
4096;SDS011;2062;50.694;7.246;2023-04-25T10:46:40;8.93;;;1.83;;
4096;SDS011;2062;50.694;7.246;2023-04-25T10:49:08;14.17;;;2.07;;
4096;SDS011;2062;50.694;7.246;2023-04-25T10:51:36;9.63;;;1.60;;
4096;SDS011;2062;50.694;7.246;2023-04-25T10:54:03;6.65;;;1.50;;
4096;SDS011;2062;50.694;7.246;2023-04-25T10:56:32;8.10;;;1.55;;
4096;SDS011;2062;50.694;7.246;2023-04-25T10:59:07;7.45;;;1.48;;
4096;SDS011;2062;50.694;7.246;2023-04-25T11:01:37;8.00;;;1.40;;
4096;SDS011;2062;50.694;7.246;2023-04-25T11:04:05;5.20;;;1.25;;
4096;SDS011;2062;50.694;7.246;2023-04-25T11:06:37;5.78;;;1.60;;
4096;SDS011;2062;50.694;7.246;2023-04-25T11:09:13;6.50;;;1.60;;
4096;SDS011;2062;50.694;7.246;2023-04-25T11:11:40;7.30;;;1.90;;
4096;SDS011;2062;50.694;7.246;2023-04-25T11:14:07;9.27;;;2.00;;
4096;SDS011;2062;50.694;7.246;2023-04-25T11:16:34;6.28;;;1.85;;
4096;SDS011;2062;50.694;7.246;2023-04-25T11:19:01;8.00;;;1.73;;
4096;SDS011;2062;50.694;7.246;2023-04-25T11:21:29;6.60;;;1.92;;
4096;SDS011;2062;50.694;7.246;2023-04-25T11:23:58;8.95;;;2.00;;
4096;SDS011;2062;50.694;7.246;2023-04-25T11:26:26;10.77;;;1.90;;
4096;SDS011;2062;50.694;7.246;2023-04-25T11:28:56;6.70;;;1.90;;
4096;SDS011;2062;50.694;7.246;2023-04-25T11:31:24;7.97;;;2.25;;
4096;SDS011;2062;50.694;7.246;2023-04-25T11:33:52;8.20;;;1.95;;
4096;SDS011;2062;50.694;7.246;2023-04-25T11:36:19;7.93;;;1.70;;
4096;SDS011;2062;50.694;7.246;2023-04-25T11:38:46;6.33;;;1.80;;
4096;SDS011;2062;50.694;7.246;2023-04-25T11:41:14;10.80;;;2.40;;
4096;SDS011;2062;50.694;7.246;2023-04-25T11:43:42;11.35;;;1.80;;
4096;SDS011;2062;50.694;7.246;2023-04-25T11:46:09;5.43;;;1.60;;
4096;SDS011;2062;50.694;7.246;2023-04-25T11:48:36;7.53;;;1.55;;
4096;SDS011;2062;50.694;7.246;2023-04-25T11:51:04;6.53;;;1.60;;
4096;SDS011;2062;50.694;7.246;2023-04-25T11:53:31;9.02;;;1.92;;
4096;SDS011;2062;50.694;7.246;2023-04-25T11:55:58;6.28;;;1.60;;
4096;SDS011;2062;50.694;7.246;2023-04-25T11:58:26;9.18;;;1.85;;
4096;SDS011;2062;50.694;7.246;2023-04-25T12:00:54;8.68;;;1.95;;
4096;SDS011;2062;50.694;7.246;2023-04-25T12:03:23;7.73;;;1.83;;
4096;SDS011;2062;50.694;7.246;2023-04-25T12:05:52;7.78;;;2.03;;
4096;SDS011;2062;50.694;7.246;2023-04-25T12:08:19;5.45;;;1.92;;
4096;SDS011;2062;50.694;7.246;2023-04-25T12:10:45;7.55;;;2.22;;
4096;SDS011;2062;50.694;7.246;2023-04-25T12:13:20;7.45;;;1.92;;
4096;SDS011;2062;50.694;7.246;2023-04-25T12:15:49;9.13;;;1.80;;
4096;SDS011;2062;50.694;7.246;2023-04-25T12:18:18;8.10;;;2.15;;
4096;SDS011;2062;50.694;7.246;2023-04-25T12:20:47;8.23;;;2.00;;
4096;SDS011;2062;50.694;7.246;2023-04-25T12:23:13;7.13;;;1.80;;
4096;SDS011;2062;50.694;7.246;2023-04-25T12:25:41;8.68;;;1.80;;
4096;SDS011;2062;50.694;7.246;2023-04-25T12:28:13;4.70;;;1.50;;
4096;SDS011;2062;50.694;7.246;2023-04-25T12:30:58;5.57;;;1.42;;
4096;SDS011;2062;50.694;7.246;2023-04-25T12:33:26;8.82;;;1.55;;
4096;SDS011;2062;50.694;7.246;2023-04-25T12:35:53;9.60;;;1.50;;
4096;SDS011;2062;50.694;7.246;2023-04-25T12:38:21;6.75;;;1.40;;
4096;SDS011;2062;50.694;7.246;2023-04-25T12:40:49;5.63;;;1.30;;
4096;SDS011;2062;50.694;7.246;2023-04-25T12:43:15;5.80;;;1.40;;
4096;SDS011;2062;50.694;7.246;2023-04-25T12:45:42;4.63;;;1.13;;
4096;SDS011;2062;50.694;7.246;2023-04-25T12:48:11;8.30;;;1.33;;
4096;SDS011;2062;50.694;7.246;2023-04-25T12:50:37;7.07;;;2.08;;
4096;SDS011;2062;50.694;7.246;2023-04-25T12:53:04;5.50;;;1.67;;
4096;SDS011;2062;50.694;7.246;2023-04-25T12:55:31;7.05;;;1.95;;
4096;SDS011;2062;50.694;7.246;2023-04-25T12:57:58;7.93;;;1.70;;
4096;SDS011;2062;50.694;7.246;2023-04-25T13:00:25;6.45;;;1.30;;
4096;SDS011;2062;50.694;7.246;2023-04-25T13:02:52;5.53;;;1.73;;
4096;SDS011;2062;50.694;7.246;2023-04-25T13:05:20;9.23;;;2.10;;
4096;SDS011;2062;50.694;7.246;2023-04-25T13:07:47;7.03;;;1.73;;
4096;SDS011;2062;50.694;7.246;2023-04-25T13:10:15;7.07;;;1.73;;
4096;SDS011;2062;50.694;7.246;2023-04-25T13:12:42;7.53;;;1.52;;
4096;SDS011;2062;50.694;7.246;2023-04-25T13:15:10;7.03;;;1.23;;
4096;SDS011;2062;50.694;7.246;2023-04-25T13:17:37;4.63;;;1.50;;
4096;SDS011;2062;50.694;7.246;2023-04-25T13:20:05;6.10;;;1.40;;
4096;SDS011;2062;50.694;7.246;2023-04-25T13:22:36;6.72;;;1.60;;
4096;SDS011;2062;50.694;7.246;2023-04-25T13:25:04;7.38;;;1.30;;
4096;SDS011;2062;50.694;7.246;2023-04-25T13:27:32;8.23;;;1.50;;
4096;SDS011;2062;50.694;7.246;2023-04-25T13:30:01;6.30;;;1.23;;
4096;SDS011;2062;50.694;7.246;2023-04-25T13:32:32;7.40;;;1.60;;
4096;SDS011;2062;50.694;7.246;2023-04-25T13:34:59;6.68;;;1.60;;
4096;SDS011;2062;50.694;7.246;2023-04-25T13:37:25;7.72;;;1.85;;
4096;SDS011;2062;50.694;7.246;2023-04-25T13:39:54;10.20;;;2.50;;
4096;SDS011;2062;50.694;7.246;2023-04-25T13:42:21;7.80;;;2.67;;
4096;SDS011;2062;50.694;7.246;2023-04-25T13:44:49;7.43;;;2.47;;
4096;SDS011;2062;50.694;7.246;2023-04-25T13:47:16;6.07;;;1.75;;
4096;SDS011;2062;50.694;7.246;2023-04-25T13:49:43;5.65;;;1.42;;
4096;SDS011;2062;50.694;7.246;2023-04-25T13:52:10;7.40;;;1.77;;
4096;SDS011;2062;50.694;7.246;2023-04-25T13:54:36;6.87;;;1.53;;
4096;SDS011;2062;50.694;7.246;2023-04-25T13:57:05;7.43;;;1.40;;
4096;SDS011;2062;50.694;7.246;2023-04-25T13:59:31;5.28;;;1.40;;
4096;SDS011;2062;50.694;7.246;2023-04-25T14:01:58;7.53;;;1.65;;
4096;SDS011;2062;50.694;7.246;2023-04-25T14:04:25;6.85;;;1.95;;
4096;SDS011;2062;50.694;7.246;2023-04-25T14:06:52;6.77;;;1.90;;
4096;SDS011;2062;50.694;7.246;2023-04-25T14:09:20;7.47;;;1.73;;
4096;SDS011;2062;50.694;7.246;2023-04-25T14:11:50;10.25;;;1.73;;
4096;SDS011;2062;50.694;7.246;2023-04-25T14:14:18;7.15;;;1.42;;
4096;SDS011;2062;50.694;7.246;2023-04-25T14:16:45;6.32;;;1.55;;
4096;SDS011;2062;50.694;7.246;2023-04-25T14:19:13;5.67;;;1.30;;
4096;SDS011;2062;50.694;7.246;2023-04-25T14:21:40;6.90;;;1.33;;
4096;SDS011;2062;50.694;7.246;2023-04-25T14:24:07;6.78;;;1.63;;
4096;SDS011;2062;50.694;7.246;2023-04-25T14:26:36;6.97;;;1.40;;
4096;SDS011;2062;50.694;7.246;2023-04-25T14:29:03;5.05;;;1.42;;
4096;SDS011;2062;50.694;7.246;2023-04-25T14:31:31;5.33;;;1.40;;
4096;SDS011;2062;50.694;7.246;2023-04-25T14:33:58;6.32;;;1.20;;
4096;SDS011;2062;50.694;7.246;2023-04-25T14:36:25;6.28;;;1.27;;
4096;SDS011;2062;50.694;7.246;2023-04-25T14:38:52;6.97;;;1.50;;
4096;SDS011;2062;50.694;7.246;2023-04-25T14:41:19;5.00;;;1.50;;
4096;SDS011;2062;50.694;7.246;2023-04-25T14:43:46;6.43;;;1.23;;
4096;SDS011;2062;50.694;7.246;2023-04-25T14:46:13;5.00;;;1.30;;
4096;SDS011;2062;50.694;7.246;2023-04-25T14:48:41;5.25;;;1.33;;
4096;SDS011;2062;50.694;7.246;2023-04-25T14:51:08;4.10;;;1.10;;
4096;SDS011;2062;50.694;7.246;2023-04-25T14:53:35;4.45;;;1.20;;
4096;SDS011;2062;50.694;7.246;2023-04-25T14:56:02;7.27;;;1.70;;
4096;SDS011;2062;50.694;7.246;2023-04-25T14:58:29;7.18;;;1.40;;
4096;SDS011;2062;50.694;7.246;2023-04-25T15:00:57;7.30;;;1.40;;
4096;SDS011;2062;50.694;7.246;2023-04-25T15:03:24;6.15;;;1.20;;
4096;SDS011;2062;50.694;7.246;2023-04-25T15:05:52;4.53;;;1.40;;
4096;SDS011;2062;50.694;7.246;2023-04-25T15:08:21;6.03;;;1.30;;
4096;SDS011;2062;50.694;7.246;2023-04-25T15:10:47;6.68;;;1.55;;
4096;SDS011;2062;50.694;7.246;2023-04-25T15:13:15;4.63;;;1.48;;
4096;SDS011;2062;50.694;7.246;2023-04-25T15:15:44;6.47;;;1.40;;
4096;SDS011;2062;50.694;7.246;2023-04-25T15:18:15;8.90;;;2.05;;
4096;SDS011;2062;50.694;7.246;2023-04-25T15:20:42;6.87;;;1.60;;
4096;SDS011;2062;50.694;7.246;2023-04-25T15:23:11;7.32;;;1.67;;
4096;SDS011;2062;50.694;7.246;2023-04-25T15:25:37;6.15;;;1.65;;
4096;SDS011;2062;50.694;7.246;2023-04-25T15:28:04;4.75;;;1.25;;
4096;SDS011;2062;50.694;7.246;2023-04-25T15:30:31;6.53;;;1.40;;
4096;SDS011;2062;50.694;7.246;2023-04-25T15:32:58;6.27;;;1.20;;
4096;SDS011;2062;50.694;7.246;2023-04-25T15:35:25;4.30;;;1.02;;
4096;SDS011;2062;50.694;7.246;2023-04-25T15:37:51;5.55;;;1.20;;
4096;SDS011;2062;50.694;7.246;2023-04-25T15:40:20;5.80;;;1.50;;
4096;SDS011;2062;50.694;7.246;2023-04-25T15:42:47;6.05;;;1.75;;
4096;SDS011;2062;50.694;7.246;2023-04-25T15:45:16;7.60;;;2.00;;
4096;SDS011;2062;50.694;7.246;2023-04-25T15:47:44;9.88;;;2.38;;
4096;SDS011;2062;50.694;7.246;2023-04-25T15:50:11;6.90;;;1.70;;
4096;SDS011;2062;50.694;7.246;2023-04-25T15:52:38;5.55;;;1.17;;
4096;SDS011;2062;50.694;7.246;2023-04-25T15:55:06;3.80;;;1.00;;
4096;SDS011;2062;50.694;7.246;2023-04-25T15:57:35;4.37;;;0.90;;
4096;SDS011;2062;50.694;7.246;2023-04-25T16:00:02;5.30;;;0.68;;
4096;SDS011;2062;50.694;7.246;2023-04-25T16:02:32;4.30;;;0.70;;
4096;SDS011;2062;50.694;7.246;2023-04-25T16:04:58;5.10;;;0.80;;
4096;SDS011;2062;50.694;7.246;2023-04-25T16:07:25;3.95;;;0.77;;
4096;SDS011;2062;50.694;7.246;2023-04-25T16:09:52;3.43;;;0.70;;
4096;SDS011;2062;50.694;7.246;2023-04-25T16:12:19;3.60;;;0.80;;